createdAt,value
2018-09-15T00:02:20.023Z,1.63
2018-09-15T00:04:51.132Z,1.37
2018-09-15T00:07:23.032Z,2.10
2018-09-15T00:09:54.151Z,1.77
2018-09-15T00:12:25.144Z,2.10
2018-09-15T00:14:56.259Z,2.03
2018-09-15T00:17:27.464Z,3.50
2018-09-15T00:19:58.737Z,3.20
2018-09-15T00:22:29.764Z,2.33
2018-09-15T00:25:00.841Z,1.67
2018-09-15T00:27:31.877Z,1.50
2018-09-15T00:30:02.846Z,1.90
2018-09-15T00:32:44.652Z,2.20
2018-09-15T00:35:15.695Z,1.90
2018-09-15T00:37:46.708Z,2.10
2018-09-15T00:40:17.758Z,2.10
2018-09-15T00:42:48.909Z,2.10
2018-09-15T00:45:19.895Z,2.20
2018-09-15T00:47:51.177Z,2.23
2018-09-15T00:50:23.397Z,2.20
2018-09-15T00:52:55.030Z,2.13
2018-09-15T00:55:25.975Z,1.83
2018-09-15T00:57:56.963Z,1.83
2018-09-15T01:00:28.229Z,2.10
2018-09-15T01:02:59.263Z,1.70
2018-09-15T01:05:30.242Z,2.27
2018-09-15T01:08:01.193Z,2.50
2018-09-15T01:10:32.212Z,2.27
2018-09-15T01:13:03.218Z,1.97
2018-09-15T01:15:34.243Z,1.80
2018-09-15T01:18:05.250Z,2.70
2018-09-15T01:20:36.349Z,1.83
2018-09-15T01:23:07.443Z,2.20
2018-09-15T01:25:38.392Z,2.53
2018-09-15T01:28:09.386Z,2.67
2018-09-15T01:30:40.397Z,2.40
2018-09-15T01:33:12.146Z,2.30
2018-09-15T01:35:44.094Z,2.20
2018-09-15T01:38:15.518Z,2.10
2018-09-15T01:40:46.624Z,2.53
2018-09-15T01:43:17.640Z,2.90
2018-09-15T01:45:48.891Z,2.73
2018-09-15T01:48:20.011Z,3.40
2018-09-15T01:50:50.969Z,3.30
2018-09-15T01:53:22.096Z,2.93
2018-09-15T01:55:53.082Z,2.73
2018-09-15T01:58:24.010Z,1.90
2018-09-15T02:00:57.472Z,2.33
2018-09-15T02:03:29.759Z,1.97
2018-09-15T02:06:00.896Z,1.97
2018-09-15T02:08:31.882Z,1.67
2018-09-15T02:11:02.897Z,1.90
2018-09-15T02:13:33.925Z,1.53
2018-09-15T02:16:05.079Z,1.67
2018-09-15T02:18:36.181Z,1.53
2018-09-15T02:21:07.235Z,1.90
2018-09-15T02:23:38.168Z,1.60
2018-09-15T02:26:09.372Z,1.80
2018-09-15T02:28:40.308Z,1.70
2018-09-15T02:31:11.212Z,1.90
2018-09-15T02:33:42.156Z,1.53
2018-09-15T02:36:13.132Z,1.70
2018-09-15T02:38:44.113Z,1.30
2018-09-15T02:41:15.693Z,1.60
2018-09-15T02:43:47.163Z,1.83
2018-09-15T02:46:18.371Z,1.67
2018-09-15T02:48:49.421Z,1.90
2018-09-15T02:51:20.669Z,2.10
2018-09-15T02:53:51.876Z,2.07
2018-09-15T02:56:23.288Z,2.53
2018-09-15T02:58:54.374Z,2.10
2018-09-15T03:01:25.517Z,1.97
2018-09-15T03:03:56.594Z,1.97
2018-09-15T03:06:27.615Z,1.90
2018-09-15T03:08:58.694Z,2.43
2018-09-15T03:11:29.903Z,1.63
2018-09-15T03:14:00.992Z,2.27
2018-09-15T03:16:32.089Z,1.80
2018-09-15T03:19:03.144Z,1.53
2018-09-15T03:21:34.249Z,2.13
2018-09-15T03:24:05.312Z,1.63
2018-09-15T03:26:36.549Z,1.47
2018-09-15T03:29:07.676Z,1.47
2018-09-15T03:31:38.762Z,1.80
2018-09-15T03:34:10.163Z,1.73
2018-09-15T03:36:41.394Z,1.87
2018-09-15T03:39:13.629Z,1.60
2018-09-15T03:41:44.946Z,2.37
2018-09-15T03:44:16.056Z,1.60
2018-09-15T03:46:47.164Z,1.90
2018-09-15T03:49:18.243Z,2.13
2018-09-15T03:51:49.322Z,1.67
2018-09-15T03:54:22.024Z,1.80
2018-09-15T03:56:53.256Z,1.30
2018-09-15T03:59:24.481Z,1.83
2018-09-15T04:01:55.768Z,1.80
2018-09-15T04:04:26.909Z,1.80
2018-09-15T04:06:58.210Z,2.10
2018-09-15T04:09:29.285Z,1.90
2018-09-15T04:12:00.564Z,2.13
2018-09-15T04:14:31.704Z,1.80
2018-09-15T04:17:02.808Z,2.47
2018-09-15T04:19:33.859Z,2.03
2018-09-15T04:22:04.899Z,1.80
2018-09-15T04:24:35.892Z,1.97
2018-09-15T04:27:06.914Z,1.80
2018-09-15T04:29:38.080Z,1.73
2018-09-15T04:32:09.146Z,2.20
2018-09-15T04:34:40.197Z,1.93
2018-09-15T04:37:11.215Z,2.00
2018-09-15T04:39:42.262Z,2.37
2018-09-15T04:42:13.338Z,2.07
2018-09-15T04:44:44.580Z,1.90
2018-09-15T04:47:15.718Z,2.23
2018-09-15T04:49:46.800Z,2.63
2018-09-15T04:52:17.899Z,2.27
2018-09-15T04:54:49.138Z,2.27
2018-09-15T04:57:20.455Z,1.87
2018-09-15T04:59:51.535Z,2.77
2018-09-15T05:02:22.659Z,2.20
2018-09-15T05:04:53.745Z,2.20
2018-09-15T05:07:24.895Z,2.30
2018-09-15T05:09:55.962Z,2.23
2018-09-15T05:12:27.082Z,2.37
2018-09-15T05:14:58.279Z,2.13
2018-09-15T05:17:29.336Z,1.97
2018-09-15T05:20:00.529Z,2.20
2018-09-15T05:22:31.630Z,2.60
2018-09-15T05:25:02.651Z,2.00
2018-09-15T05:27:33.703Z,2.50
2018-09-15T05:30:05.028Z,2.73
2018-09-15T05:32:36.135Z,2.33
2018-09-15T05:35:07.180Z,2.20
2018-09-15T05:37:38.136Z,1.97
2018-09-15T05:40:09.235Z,2.30
2018-09-15T05:42:40.252Z,2.53
2018-09-15T05:45:11.287Z,2.53
2018-09-15T05:47:42.419Z,2.63
2018-09-15T05:50:13.609Z,2.70
2018-09-15T05:52:44.719Z,2.53
2018-09-15T05:55:15.913Z,2.37
2018-09-15T05:57:46.996Z,2.20
2018-09-15T06:00:18.154Z,2.47
2018-09-15T06:02:49.196Z,2.37
2018-09-15T06:05:20.343Z,2.67
2018-09-15T06:07:51.349Z,3.00
2018-09-15T06:10:22.466Z,2.87
2018-09-15T06:12:53.556Z,2.43
2018-09-15T06:15:24.569Z,2.83
2018-09-15T06:17:55.652Z,2.93
2018-09-15T06:20:26.766Z,3.23
2018-09-15T06:22:57.814Z,7.83
2018-09-15T06:25:28.878Z,7.20
2018-09-15T06:28:00.042Z,6.27
2018-09-15T06:30:31.089Z,6.43
2018-09-15T06:33:02.227Z,6.00
2018-09-15T06:35:33.603Z,5.40
2018-09-15T06:38:04.606Z,4.50
2018-09-15T06:40:35.667Z,3.80
2018-09-15T06:43:07.062Z,2.87
2018-09-15T06:45:38.210Z,3.13
2018-09-15T06:48:09.571Z,2.83
2018-09-15T06:50:40.648Z,2.80
2018-09-15T06:53:11.874Z,2.10
2018-09-15T06:55:42.890Z,2.60
2018-09-15T06:58:13.968Z,3.00
2018-09-15T07:00:45.069Z,2.93
2018-09-15T07:03:16.172Z,3.03
2018-09-15T07:05:47.519Z,2.13
2018-09-15T07:08:18.620Z,4.00
2018-09-15T07:10:49.838Z,3.00
2018-09-15T07:13:20.875Z,3.20
2018-09-15T07:15:52.040Z,3.30
2018-09-15T07:18:23.126Z,3.30
2018-09-15T07:20:54.417Z,3.57
2018-09-15T07:23:25.480Z,3.33
2018-09-15T07:25:56.651Z,3.03
2018-09-15T07:28:27.711Z,3.30
2018-09-15T07:30:58.911Z,3.37
2018-09-15T07:33:30.048Z,3.27
2018-09-15T07:36:01.126Z,3.40
2018-09-15T07:38:32.124Z,3.90
2018-09-15T07:41:03.191Z,3.80
2018-09-15T07:43:34.216Z,4.47
2018-09-15T07:46:05.255Z,5.07
2018-09-15T07:48:36.622Z,3.87
2018-09-15T07:51:08.292Z,4.17
2018-09-15T07:53:39.608Z,4.07
2018-09-15T07:56:10.771Z,3.40
2018-09-15T07:58:42.004Z,3.93
2018-09-15T08:01:13.140Z,4.17
2018-09-15T08:03:44.504Z,3.70
2018-09-15T08:06:15.629Z,3.37
2018-09-15T08:08:46.733Z,3.80
2018-09-15T08:11:17.788Z,3.50
2018-09-15T08:13:49.304Z,3.87
2018-09-15T08:16:20.375Z,4.30
2018-09-15T08:18:51.426Z,4.70
2018-09-15T08:21:22.635Z,4.60
2018-09-15T08:23:53.878Z,4.70
2018-09-15T08:26:25.094Z,4.43
2018-09-15T08:28:56.236Z,4.37
2018-09-15T08:31:27.412Z,4.07
2018-09-15T08:33:58.488Z,4.90
2018-09-15T08:38:55.325Z,4.03
2018-09-15T08:41:26.502Z,4.13
2018-09-15T08:43:57.742Z,4.87
2018-09-15T08:46:28.890Z,4.33
2018-09-15T08:48:59.990Z,4.67
2018-09-15T08:51:31.189Z,4.17
2018-09-15T08:54:02.351Z,4.80
2018-09-15T08:56:33.425Z,5.17
2018-09-15T08:59:04.824Z,4.67
2018-09-15T09:01:35.979Z,5.10
2018-09-15T09:04:07.203Z,5.30
2018-09-15T09:06:38.422Z,4.07
2018-09-15T09:09:12.704Z,5.60
2018-09-15T09:11:43.797Z,4.43
2018-09-15T09:14:15.087Z,4.30
2018-09-15T09:16:46.102Z,4.63
2018-09-15T09:19:17.218Z,4.60
2018-09-15T09:21:48.219Z,4.70
2018-09-15T09:24:19.322Z,4.30
2018-09-15T09:26:50.416Z,4.40
2018-09-15T09:29:21.565Z,4.83
2018-09-15T09:31:52.972Z,4.97
2018-09-15T09:34:23.968Z,4.70
2018-09-15T09:36:55.014Z,4.57
2018-09-15T09:39:26.356Z,4.87
2018-09-15T09:41:57.498Z,5.53
2018-09-15T09:44:28.667Z,4.90
2018-09-15T09:46:59.784Z,5.43
2018-09-15T09:49:30.874Z,4.30
2018-09-15T09:52:02.050Z,5.07
2018-09-15T09:54:33.138Z,5.07
2018-09-15T09:57:04.124Z,4.47
2018-09-15T09:59:35.412Z,5.20
2018-09-15T10:02:11.042Z,5.33
2018-09-15T10:04:42.237Z,5.30
2018-09-15T10:07:13.583Z,5.43
2018-09-15T10:09:44.642Z,4.40
2018-09-15T10:12:15.727Z,5.63
2018-09-15T10:14:46.899Z,5.63
2018-09-15T10:17:18.174Z,5.03
2018-09-15T10:19:49.410Z,3.83
2018-09-15T10:22:20.421Z,4.73
2018-09-15T10:24:51.466Z,5.27
2018-09-15T10:27:22.521Z,5.73
2018-09-15T10:29:53.579Z,5.00
2018-09-15T10:32:24.611Z,5.10
2018-09-15T10:34:55.628Z,5.57
2018-09-15T10:37:26.776Z,5.13
2018-09-15T10:39:57.787Z,5.40
2018-09-15T10:42:28.990Z,4.97
2018-09-15T10:45:00.135Z,5.30
2018-09-15T10:47:31.309Z,4.63
2018-09-15T10:50:02.301Z,5.20
2018-09-15T10:52:33.363Z,4.93
2018-09-15T10:55:04.400Z,4.90
2018-09-15T10:57:35.400Z,5.93
2018-09-15T11:00:06.652Z,5.43
2018-09-15T11:02:37.672Z,5.00
2018-09-15T11:05:08.790Z,6.43
2018-09-15T11:07:39.819Z,6.37
2018-09-15T11:10:10.832Z,5.33
2018-09-15T11:12:41.930Z,5.20
2018-09-15T11:15:13.026Z,5.63
2018-09-15T11:17:44.079Z,5.37
2018-09-15T11:20:15.080Z,5.50
2018-09-15T11:22:46.373Z,5.33
2018-09-15T11:25:17.676Z,5.17
2018-09-15T11:27:48.859Z,4.83
2018-09-15T11:30:19.968Z,5.17
2018-09-15T11:32:51.029Z,4.67
2018-09-15T11:35:22.118Z,5.30
2018-09-15T11:37:53.196Z,5.43
2018-09-15T11:40:24.275Z,5.30
2018-09-15T11:42:55.561Z,5.90
2018-09-15T11:45:26.708Z,6.27
2018-09-15T11:47:57.932Z,5.27
2018-09-15T11:50:29.177Z,7.63
2018-09-15T11:53:00.586Z,6.23
2018-09-15T11:55:31.747Z,7.20
2018-09-15T11:58:02.966Z,7.30
2018-09-15T12:00:36.696Z,6.13
2018-09-15T12:03:07.807Z,7.03
2018-09-15T12:05:38.863Z,5.93
2018-09-15T12:08:09.842Z,6.13
2018-09-15T12:10:40.958Z,5.60
2018-09-15T12:13:12.094Z,6.13
2018-09-15T12:15:43.266Z,5.80
2018-09-15T12:18:14.296Z,6.53
2018-09-15T12:20:45.829Z,6.03
2018-09-15T12:23:16.824Z,5.90
2018-09-15T12:25:47.791Z,7.30
2018-09-15T12:28:18.839Z,5.27
2018-09-15T12:30:50.163Z,5.80
2018-09-15T12:33:21.274Z,5.03
2018-09-15T12:35:52.358Z,5.30
2018-09-15T12:38:23.553Z,4.60
2018-09-15T12:40:54.653Z,4.97
2018-09-15T12:43:25.724Z,4.23
2018-09-15T12:45:56.799Z,4.17
2018-09-15T12:48:27.819Z,4.47
2018-09-15T12:50:58.937Z,3.70
2018-09-15T12:53:29.999Z,4.50
2018-09-15T12:56:00.948Z,3.10
2018-09-15T12:58:31.956Z,3.97
2018-09-15T13:01:03.063Z,3.90
2018-09-15T13:03:34.028Z,3.00
2018-09-15T13:06:05.073Z,2.40
2018-09-15T13:08:36.223Z,2.40
2018-09-15T13:11:07.499Z,2.23
2018-09-15T13:13:38.615Z,1.70
2018-09-15T13:16:09.657Z,1.73
2018-09-15T13:18:40.650Z,2.10
2018-09-15T13:21:11.691Z,1.37
2018-09-15T13:23:42.715Z,1.97
2018-09-15T13:26:13.780Z,2.00
2018-09-15T13:28:44.916Z,1.60
2018-09-15T13:31:16.057Z,1.50
2018-09-15T13:33:47.104Z,1.90
2018-09-15T13:36:18.106Z,2.07
2018-09-15T13:38:49.261Z,1.80
2018-09-15T13:41:21.169Z,2.30
2018-09-15T13:43:52.267Z,1.30
2018-09-15T13:46:23.330Z,1.57
2018-09-15T13:48:54.493Z,1.50
2018-09-15T13:51:25.572Z,1.53
2018-09-15T13:53:56.902Z,1.60
2018-09-15T13:56:28.096Z,1.23
2018-09-15T13:58:59.188Z,1.40
2018-09-15T14:01:30.252Z,1.37
2018-09-15T14:04:01.379Z,1.40
2018-09-15T14:06:32.442Z,1.00
2018-09-15T14:09:03.744Z,1.30
2018-09-15T14:11:34.710Z,1.33
2018-09-15T14:14:05.830Z,1.60
2018-09-15T14:16:37.035Z,1.00
2018-09-15T14:19:08.231Z,1.27
2018-09-15T14:21:39.390Z,1.47
2018-09-15T14:24:10.435Z,1.23
2018-09-15T14:26:41.725Z,1.00
2018-09-15T14:29:12.822Z,1.27
2018-09-15T14:31:43.788Z,1.23
2018-09-15T14:34:14.896Z,1.47
2018-09-15T14:36:46.254Z,1.13
2018-09-15T14:39:17.264Z,1.10
2018-09-15T14:41:48.227Z,1.07
2018-09-15T14:44:19.384Z,1.20
2018-09-15T14:46:50.440Z,1.03
2018-09-15T14:49:21.605Z,1.03
2018-09-15T14:51:52.763Z,1.10
2018-09-15T14:54:23.848Z,1.20
2018-09-15T14:56:54.890Z,0.93
2018-09-15T14:59:26.329Z,1.00
2018-09-15T15:01:57.442Z,1.10
2018-09-15T15:04:28.447Z,0.80
2018-09-15T15:06:59.500Z,1.10
2018-09-15T15:09:30.629Z,1.20
2018-09-15T15:12:01.764Z,1.30
2018-09-15T15:14:32.926Z,1.50
2018-09-15T15:17:04.095Z,1.07
2018-09-15T15:19:35.498Z,1.30
2018-09-15T15:22:06.561Z,1.37
2018-09-15T15:24:37.575Z,1.17
2018-09-15T15:27:08.580Z,1.20
2018-09-15T15:29:39.592Z,1.47
2018-09-15T15:32:10.769Z,1.30
2018-09-15T15:34:41.801Z,1.50
2018-09-15T15:37:13.048Z,1.17
2018-09-15T15:39:44.140Z,1.03
2018-09-15T15:42:27.268Z,1.03
2018-09-15T15:44:58.342Z,1.17
2018-09-15T15:47:30.453Z,1.20
2018-09-15T15:50:01.675Z,1.00
2018-09-15T15:52:32.641Z,1.00
2018-09-15T15:55:03.744Z,1.10
2018-09-15T15:57:35.244Z,1.20
2018-09-15T16:00:06.999Z,1.20
2018-09-15T16:02:38.103Z,1.07
2018-09-15T16:05:09.267Z,1.20
2018-09-15T16:07:40.457Z,1.20
2018-09-15T16:10:11.675Z,0.90
2018-09-15T16:12:42.806Z,1.10
2018-09-15T16:15:13.795Z,1.00
2018-09-15T16:17:45.086Z,1.30
2018-09-15T16:20:16.209Z,1.23
2018-09-15T16:22:47.294Z,1.40
2018-09-15T16:25:18.393Z,1.40
2018-09-15T16:27:49.694Z,1.13
2018-09-15T16:30:20.835Z,1.27
2018-09-15T16:32:51.878Z,1.30
2018-09-15T16:35:23.032Z,1.33
2018-09-15T16:38:08.715Z,1.23
2018-09-15T16:40:40.315Z,1.50
2018-09-15T16:43:11.480Z,1.30
2018-09-15T16:45:42.604Z,1.17
2018-09-15T16:48:13.738Z,1.10
2018-09-15T16:50:44.836Z,1.10
2018-09-15T16:53:15.875Z,1.17
2018-09-15T16:55:46.910Z,1.57
2018-09-15T16:58:18.106Z,1.40
2018-09-15T17:00:49.197Z,1.30
2018-09-15T17:03:20.279Z,1.20
2018-09-15T17:05:51.333Z,1.17
2018-09-15T17:08:22.417Z,1.50
2018-09-15T17:10:53.505Z,1.17
2018-09-15T17:13:24.599Z,1.17
2018-09-15T17:15:55.741Z,1.10
2018-09-15T17:18:26.827Z,1.30
2018-09-15T17:20:57.996Z,1.07
2018-09-15T17:23:29.249Z,1.07
2018-09-15T17:26:00.239Z,1.10
2018-09-15T17:28:31.196Z,1.30
2018-09-15T17:31:02.496Z,1.20
2018-09-15T17:33:33.552Z,1.20
2018-09-15T17:36:04.729Z,0.90
2018-09-15T17:38:36.104Z,1.13
2018-09-15T17:41:07.164Z,1.33
2018-09-15T17:43:38.250Z,1.37
2018-09-15T17:46:09.353Z,1.23
2018-09-15T17:48:40.334Z,1.10
2018-09-15T17:51:11.374Z,1.20
2018-09-15T17:53:42.365Z,1.20
2018-09-15T17:56:13.423Z,1.10
2018-09-15T17:58:44.478Z,0.90
2018-09-15T18:01:15.558Z,1.20
2018-09-15T18:03:46.609Z,1.23
2018-09-15T18:06:17.702Z,1.33
2018-09-15T18:08:48.819Z,1.17
2018-09-15T18:11:19.933Z,1.40
2018-09-15T18:13:51.045Z,1.30
2018-09-15T18:16:22.090Z,1.10
2018-09-15T18:18:53.170Z,1.20
2018-09-15T18:21:24.403Z,1.30
2018-09-15T18:23:55.452Z,1.30
2018-09-15T18:26:26.554Z,1.10
2018-09-15T18:28:57.747Z,1.43
2018-09-15T18:31:29.111Z,1.47
2018-09-15T18:34:00.151Z,1.33
2018-09-15T18:36:31.311Z,1.07
2018-09-15T18:39:02.536Z,1.40
2018-09-15T18:41:33.463Z,1.17
2018-09-15T18:44:04.530Z,1.00
2018-09-15T18:46:35.908Z,1.03
2018-09-15T18:49:07.237Z,1.30
2018-09-15T18:51:38.319Z,1.10
2018-09-15T18:54:09.636Z,1.40
2018-09-15T18:56:40.836Z,1.50
2018-09-15T18:59:11.868Z,1.10
2018-09-15T19:01:42.930Z,1.00
2018-09-15T19:04:13.996Z,1.10
2018-09-15T19:06:45.012Z,1.40
2018-09-15T19:09:16.027Z,1.13
2018-09-15T19:11:47.195Z,1.33
2018-09-15T19:14:18.351Z,1.40
2018-09-15T19:16:49.474Z,1.10
2018-09-15T19:19:20.761Z,1.20
2018-09-15T19:21:51.881Z,1.33
2018-09-15T19:24:23.216Z,1.30
2018-09-15T19:26:54.273Z,1.77
2018-09-15T19:29:25.518Z,1.50
2018-09-15T19:31:56.597Z,1.20
2018-09-15T19:34:27.665Z,1.20
2018-09-15T19:36:58.751Z,1.40
2018-09-15T19:39:29.821Z,1.27
2018-09-15T19:42:01.062Z,1.30
2018-09-15T19:44:32.186Z,1.40
2018-09-15T19:47:03.161Z,1.17
2018-09-15T19:49:34.143Z,1.20
2018-09-15T19:52:05.181Z,1.30
2018-09-15T19:54:36.227Z,1.17
2018-09-15T19:57:08.436Z,1.17
2018-09-15T19:59:39.437Z,1.20
2018-09-15T20:02:10.999Z,1.27
2018-09-15T20:04:42.276Z,1.23
2018-09-15T20:07:13.688Z,1.60
2018-09-15T20:09:45.040Z,1.47
2018-09-15T20:12:16.272Z,1.40
2018-09-15T20:14:47.243Z,0.90
2018-09-15T20:17:16.009Z,1.20
2018-09-15T20:19:44.863Z,1.30
2018-09-15T20:22:16.232Z,1.30
2018-09-15T20:24:47.535Z,1.40
2018-09-15T20:27:18.540Z,1.07
2018-09-15T20:29:49.617Z,1.37
2018-09-15T20:32:20.756Z,1.27
2018-09-15T20:34:51.960Z,1.20
2018-09-15T20:37:23.067Z,1.10
2018-09-15T20:39:54.138Z,1.10
2018-09-15T20:42:25.449Z,1.30
2018-09-15T20:44:56.506Z,1.43
2018-09-15T20:47:28.273Z,1.30
2018-09-15T20:49:59.412Z,1.20
2018-09-15T20:52:30.673Z,1.20
2018-09-15T20:55:01.727Z,1.10
2018-09-15T20:57:32.849Z,1.17
2018-09-15T21:00:03.911Z,1.30
2018-09-15T21:02:34.955Z,1.97
2018-09-15T21:05:06.169Z,1.20
2018-09-15T21:07:37.417Z,1.20
2018-09-15T21:10:08.740Z,1.30
2018-09-15T21:12:39.922Z,1.57
2018-09-15T21:15:11.085Z,1.07
2018-09-15T21:17:42.123Z,1.27
2018-09-15T21:20:13.221Z,1.23
2018-09-15T21:22:44.184Z,1.43
2018-09-15T21:25:15.266Z,1.30
2018-09-15T21:27:46.380Z,1.10
2018-09-15T21:30:17.527Z,1.40
2018-09-15T21:32:48.689Z,1.30
2018-09-15T21:35:20.103Z,1.60
2018-09-15T21:37:51.089Z,1.60
2018-09-15T21:40:22.214Z,1.77
2018-09-15T21:42:53.331Z,1.23
2018-09-15T21:45:24.285Z,1.47
2018-09-15T21:47:55.286Z,1.40
2018-09-15T21:50:26.349Z,1.23
2018-09-15T21:52:57.398Z,1.77
2018-09-15T21:55:28.341Z,1.60
2018-09-15T21:57:59.480Z,1.67
2018-09-15T22:00:30.587Z,1.47
2018-09-15T22:03:01.569Z,1.50
2018-09-15T22:05:32.532Z,1.30
2018-09-15T22:08:03.577Z,1.43
2018-09-15T22:10:34.548Z,1.50
2018-09-15T22:13:05.525Z,1.33
2018-09-15T22:15:36.598Z,1.60
2018-09-15T22:18:07.508Z,1.47
2018-09-15T22:20:38.512Z,1.40
2018-09-15T22:23:09.497Z,1.77
2018-09-15T22:25:40.555Z,1.67
2018-09-15T22:28:13.442Z,1.90
2018-09-15T22:30:46.359Z,1.70
2018-09-15T22:33:17.878Z,1.67
2018-09-15T22:35:49.033Z,1.70
2018-09-15T22:38:20.394Z,1.60
2018-09-15T22:40:51.662Z,2.63
2018-09-15T22:43:25.797Z,3.93
2018-09-15T22:45:58.222Z,4.90
2018-09-15T22:48:29.654Z,2.00
2018-09-15T22:51:05.681Z,1.93
2018-09-15T22:53:37.700Z,1.87
2018-09-15T22:56:08.936Z,1.97
2018-09-15T22:58:42.289Z,2.10
2018-09-15T23:01:17.613Z,1.80
2018-09-15T23:03:49.374Z,1.77
2018-09-15T23:06:21.396Z,1.70
2018-09-15T23:08:56.829Z,1.80
2018-09-15T23:11:35.932Z,1.70
2018-09-15T23:14:07.576Z,2.27
2018-09-15T23:16:39.149Z,2.03
2018-09-15T23:19:10.881Z,2.13
2018-09-15T23:21:41.906Z,1.63
2018-09-15T23:24:12.900Z,2.47
2018-09-15T23:26:43.826Z,2.60
2018-09-15T23:29:15.208Z,4.60
2018-09-15T23:31:46.613Z,3.57
2018-09-15T23:34:18.460Z,3.37
2018-09-15T23:36:49.795Z,2.77
2018-09-15T23:39:21.416Z,2.40
2018-09-15T23:41:52.456Z,3.33
2018-09-15T23:44:23.649Z,2.67
2018-09-15T23:46:54.589Z,2.77
2018-09-15T23:49:26.264Z,4.03
2018-09-15T23:51:57.505Z,3.40
2018-09-15T23:54:28.936Z,2.50
2018-09-15T23:57:00.240Z,3.43
2018-09-15T23:59:31.673Z,4.97
